createdAt,value
2023-05-09T00:00:46.399Z,23.55
2023-05-09T00:03:14.511Z,24.38
2023-05-09T00:05:41.773Z,23.13
2023-05-09T00:10:34.701Z,23.98
2023-05-09T00:13:01.278Z,29.15
2023-05-09T00:15:28.844Z,29.17
2023-05-09T00:17:55.320Z,25.08
2023-05-09T00:20:21.878Z,24.73
2023-05-09T00:22:48.287Z,23.38
2023-05-09T00:25:14.997Z,25.00
2023-05-09T00:27:41.652Z,23.40
2023-05-09T00:30:08.592Z,24.45
2023-05-09T00:32:35.553Z,23.42
2023-05-09T00:35:02.041Z,23.95
2023-05-09T00:37:30.555Z,25.85
2023-05-09T00:39:57.016Z,23.90
2023-05-09T00:42:23.506Z,25.52
2023-05-09T00:44:50.043Z,27.27
2023-05-09T00:47:16.533Z,22.48
2023-05-09T00:49:43.159Z,23.38
2023-05-09T00:52:09.663Z,22.55
2023-05-09T00:54:36.133Z,23.95
2023-05-09T00:57:02.775Z,23.08
2023-05-09T00:59:29.379Z,26.45
2023-05-09T01:01:56.149Z,25.35
2023-05-09T01:04:22.831Z,24.58
2023-05-09T01:07:11.486Z,25.67
2023-05-09T01:09:55.414Z,22.10
2023-05-09T01:12:49.761Z,24.48
2023-05-09T01:15:16.582Z,23.17
2023-05-09T01:18:06.314Z,26.20
2023-05-09T01:20:45.621Z,25.10
2023-05-09T01:23:20.253Z,23.50
2023-05-09T01:25:55.584Z,25.65
2023-05-09T01:28:34.503Z,27.88
2023-05-09T01:31:01.351Z,24.13
2023-05-09T01:33:32.065Z,24.55
2023-05-09T01:36:04.225Z,29.20
2023-05-09T01:38:32.623Z,23.20
2023-05-09T01:41:00.670Z,27.33
2023-05-09T01:43:29.870Z,27.95
2023-05-09T01:45:58.388Z,24.38
2023-05-09T01:48:26.551Z,29.45
2023-05-09T01:50:55.307Z,26.58
2023-05-09T01:53:30.215Z,24.88
2023-05-09T01:55:59.440Z,24.17
2023-05-09T01:58:27.948Z,24.50
2023-05-09T02:00:54.469Z,23.45
2023-05-09T02:03:22.338Z,22.38
2023-05-09T02:05:50.071Z,24.50
2023-05-09T02:08:21.118Z,24.73
2023-05-09T02:10:49.180Z,23.60
2023-05-09T02:13:16.920Z,21.85
2023-05-09T02:15:44.226Z,22.50
2023-05-09T02:20:37.559Z,24.85
2023-05-09T02:23:04.895Z,25.30
2023-05-09T02:25:33.169Z,24.38
2023-05-09T02:28:00.751Z,26.20
2023-05-09T02:30:33.360Z,25.77
2023-05-09T02:33:06.049Z,24.50
2023-05-09T02:35:33.229Z,24.85
2023-05-09T02:38:00.712Z,23.85
2023-05-09T02:40:29.318Z,24.80
2023-05-09T02:42:56.424Z,28.23
2023-05-09T02:45:23.042Z,27.80
2023-05-09T02:47:49.567Z,26.35
2023-05-09T02:50:16.065Z,26.17
2023-05-09T02:52:42.573Z,25.80
2023-05-09T02:55:09.723Z,24.10
2023-05-09T02:57:36.913Z,28.30
2023-05-09T03:02:30.918Z,29.45
2023-05-09T03:04:57.537Z,25.65
2023-05-09T03:07:24.010Z,26.05
2023-05-09T03:09:50.788Z,26.13
2023-05-09T03:12:17.165Z,25.85
2023-05-09T03:14:43.692Z,28.47
2023-05-09T03:17:10.147Z,26.05
2023-05-09T03:19:36.616Z,28.58
2023-05-09T03:22:03.071Z,27.73
2023-05-09T03:24:29.782Z,26.58
2023-05-09T03:26:56.196Z,26.33
2023-05-09T03:29:22.806Z,31.13
2023-05-09T03:31:49.316Z,27.25
2023-05-09T03:34:15.802Z,26.98
2023-05-09T03:36:43.672Z,25.83
2023-05-09T03:39:10.991Z,28.38
2023-05-09T03:41:37.542Z,27.77
2023-05-09T03:44:04.858Z,24.65
2023-05-09T03:46:31.236Z,29.73
2023-05-09T03:48:57.706Z,26.13
2023-05-09T03:51:24.213Z,28.33
2023-05-09T03:53:50.603Z,29.15
2023-05-09T03:56:17.211Z,31.30
2023-05-09T03:58:43.816Z,31.60
2023-05-09T04:01:10.857Z,35.95
2023-05-09T04:03:38.007Z,33.67
2023-05-09T04:06:05.868Z,37.42
2023-05-09T04:08:33.324Z,38.88
2023-05-09T04:10:59.822Z,40.78
2023-05-09T04:13:26.718Z,41.42
2023-05-09T04:18:21.547Z,47.72
2023-05-09T04:20:48.320Z,45.28
2023-05-09T04:23:14.845Z,61.80
2023-05-09T04:25:43.813Z,48.92
2023-05-09T04:28:10.232Z,53.72
2023-05-09T04:30:37.623Z,55.30
2023-05-09T04:33:04.476Z,57.00
2023-05-09T04:35:33.534Z,56.05
2023-05-09T04:38:00.007Z,57.95
2023-05-09T04:40:27.937Z,55.78
2023-05-09T04:43:06.755Z,58.67
2023-05-09T04:45:35.348Z,55.20
2023-05-09T04:48:01.759Z,57.35
2023-05-09T04:50:28.260Z,66.07
2023-05-09T04:52:54.855Z,67.63
2023-05-09T04:55:21.289Z,61.30
2023-05-09T04:57:47.801Z,64.30
2023-05-09T05:00:16.756Z,60.28
2023-05-09T05:02:43.357Z,59.08
2023-05-09T05:05:12.370Z,63.38
2023-05-09T05:07:39.331Z,62.25
2023-05-09T05:10:06.586Z,72.82
2023-05-09T05:12:35.308Z,76.68
2023-05-09T05:15:01.801Z,83.80
2023-05-09T05:17:29.729Z,76.32
2023-05-09T05:19:56.236Z,85.13
2023-05-09T05:22:23.084Z,85.97
2023-05-09T05:24:53.675Z,79.95
2023-05-09T05:27:20.241Z,79.07
2023-05-09T05:29:46.592Z,79.68
2023-05-09T05:32:14.129Z,75.67
2023-05-09T05:34:40.695Z,80.72
2023-05-09T05:37:09.231Z,71.25
2023-05-09T05:39:35.678Z,74.45
2023-05-09T05:42:02.111Z,71.57
2023-05-09T05:44:28.561Z,67.43
2023-05-09T05:46:55.255Z,74.68
2023-05-09T05:49:25.073Z,71.68
2023-05-09T05:51:52.645Z,67.22
2023-05-09T05:54:20.183Z,72.95
2023-05-09T05:56:48.663Z,67.05
2023-05-09T05:59:18.201Z,60.90
2023-05-09T06:01:44.672Z,71.07
2023-05-09T06:04:11.075Z,66.82
2023-05-09T06:06:38.508Z,64.07
2023-05-09T06:11:36.789Z,64.57
2023-05-09T06:14:04.171Z,64.00
2023-05-09T06:16:30.807Z,67.47
2023-05-09T06:18:58.218Z,56.97
2023-05-09T06:21:27.716Z,61.78
2023-05-09T06:26:23.450Z,57.38
2023-05-09T06:28:49.947Z,57.38
2023-05-09T06:31:16.492Z,55.97
2023-05-09T06:33:43.091Z,63.08
2023-05-09T06:36:09.787Z,61.17
2023-05-09T06:38:36.316Z,57.53
2023-05-09T06:41:06.840Z,56.00
2023-05-09T06:43:33.222Z,48.50
2023-05-09T06:45:59.755Z,55.70
2023-05-09T06:48:26.837Z,52.67
2023-05-09T06:50:53.562Z,47.65
2023-05-09T06:53:19.986Z,50.10
2023-05-09T06:55:48.605Z,47.42
2023-05-09T06:58:15.324Z,51.30
2023-05-09T07:00:41.730Z,46.65
2023-05-09T07:03:15.975Z,51.17
2023-05-09T07:05:43.526Z,49.47
2023-05-09T07:10:36.638Z,47.50
2023-05-09T07:13:03.114Z,44.60
2023-05-09T07:15:40.645Z,44.22
2023-05-09T07:18:08.519Z,47.45
2023-05-09T07:20:35.029Z,44.17
2023-05-09T07:23:06.867Z,41.25
2023-05-09T07:25:33.328Z,47.30
2023-05-09T07:27:59.916Z,44.33
2023-05-09T07:30:28.549Z,44.92
2023-05-09T07:32:55.560Z,47.10
2023-05-09T07:35:22.247Z,46.65
2023-05-09T07:37:48.721Z,42.08
2023-05-09T07:40:16.582Z,45.10
2023-05-09T07:42:49.524Z,41.22
2023-05-09T07:45:18.709Z,43.72
2023-05-09T07:47:46.924Z,42.55
2023-05-09T07:50:13.375Z,42.17
2023-05-09T07:52:49.204Z,41.40
2023-05-09T07:55:15.843Z,40.85
2023-05-09T07:57:42.444Z,39.85
2023-05-09T08:00:10.590Z,41.85
2023-05-09T08:02:37.105Z,41.97
2023-05-09T08:05:03.691Z,41.03
2023-05-09T08:07:30.410Z,42.35
2023-05-09T08:09:56.840Z,39.97
2023-05-09T08:12:24.337Z,42.13
2023-05-09T08:14:50.814Z,40.83
2023-05-09T08:17:17.445Z,44.88
2023-05-09T08:19:43.791Z,45.08
2023-05-09T08:22:16.758Z,40.53
2023-05-09T08:24:43.341Z,45.35
2023-05-09T08:27:09.809Z,39.30
2023-05-09T08:29:36.234Z,39.60
2023-05-09T08:32:02.672Z,42.17
2023-05-09T08:34:31.216Z,41.75
2023-05-09T08:36:57.613Z,43.80
2023-05-09T08:39:24.290Z,52.33
2023-05-09T08:41:53.144Z,54.45
2023-05-09T08:44:21.621Z,40.65
2023-05-09T08:46:51.581Z,44.47
2023-05-09T08:49:20.836Z,49.92
2023-05-09T08:51:48.855Z,47.55
2023-05-09T08:54:15.958Z,42.42
2023-05-09T08:59:09.777Z,42.45
2023-05-09T09:01:36.763Z,42.75
2023-05-09T09:06:35.490Z,44.20
2023-05-09T09:09:07.118Z,45.08
2023-05-09T09:11:35.804Z,41.20
2023-05-09T09:14:10.102Z,43.60
2023-05-09T09:16:37.080Z,43.85
2023-05-09T09:21:32.903Z,45.92
2023-05-09T09:23:59.989Z,45.33
2023-05-09T09:28:57.945Z,44.97
2023-05-09T09:31:30.821Z,48.83
2023-05-09T09:34:02.369Z,43.10
2023-05-09T09:36:30.234Z,41.53
2023-05-09T09:39:00.433Z,39.45
2023-05-09T09:41:34.296Z,37.97
2023-05-09T09:44:15.815Z,42.08
2023-05-09T09:46:53.419Z,39.65
2023-05-09T09:51:56.976Z,40.58
2023-05-09T09:54:26.796Z,36.42
2023-05-09T09:56:54.685Z,33.45
2023-05-09T09:59:24.906Z,34.17
2023-05-09T10:02:02.881Z,33.40
2023-05-09T10:04:36.879Z,31.35
2023-05-09T10:07:12.879Z,27.90
2023-05-09T10:12:08.944Z,27.73
2023-05-09T10:14:43.719Z,29.65
2023-05-09T10:17:14.746Z,30.67
2023-05-09T10:19:45.874Z,28.83
2023-05-09T10:22:19.728Z,27.48
2023-05-09T10:25:01.809Z,24.92
2023-05-09T10:27:32.520Z,22.40
2023-05-09T10:30:13.244Z,18.42
2023-05-09T10:32:54.803Z,17.52
2023-05-09T10:35:27.862Z,14.88
2023-05-09T10:37:57.629Z,16.05
2023-05-09T10:40:24.438Z,14.38
2023-05-09T10:42:51.017Z,16.13
2023-05-09T10:45:17.555Z,21.48
2023-05-09T10:47:45.444Z,17.27
2023-05-09T10:50:15.780Z,15.50
2023-05-09T10:53:04.975Z,14.00
2023-05-09T10:56:02.969Z,16.48
2023-05-09T10:58:33.239Z,15.00
2023-05-09T11:01:01.351Z,13.38
2023-05-09T11:03:49.040Z,13.43
2023-05-09T11:06:40.257Z,11.82
2023-05-09T11:09:37.788Z,11.23
2023-05-09T11:12:07.192Z,13.10
2023-05-09T11:14:46.863Z,13.40
2023-05-09T11:17:14.563Z,17.25
2023-05-09T11:19:46.788Z,13.65
2023-05-09T11:22:17.079Z,14.95
2023-05-09T11:24:47.880Z,13.63
2023-05-09T11:27:15.820Z,13.55
2023-05-09T11:29:55.411Z,15.55
2023-05-09T11:32:30.028Z,14.05
2023-05-09T11:35:15.356Z,16.58
2023-05-09T11:38:00.161Z,13.35
2023-05-09T11:40:28.424Z,14.38
2023-05-09T11:42:58.584Z,17.85
2023-05-09T11:45:31.203Z,17.90
2023-05-09T11:47:58.549Z,19.25
2023-05-09T11:50:27.827Z,20.45
2023-05-09T11:52:54.585Z,16.33
2023-05-09T11:55:30.264Z,27.70
2023-05-09T11:58:00.163Z,19.25
2023-05-09T12:00:26.799Z,17.80
2023-05-09T12:02:54.013Z,20.42
2023-05-09T12:05:23.234Z,17.45
2023-05-09T12:07:50.237Z,19.70
2023-05-09T12:12:55.549Z,17.30
2023-05-09T12:15:22.475Z,19.40
2023-05-09T12:18:08.120Z,17.52
2023-05-09T12:20:46.124Z,19.65
2023-05-09T12:23:14.579Z,21.85
2023-05-09T12:25:55.362Z,19.88
2023-05-09T12:28:24.194Z,17.73
2023-05-09T12:30:52.300Z,18.98
2023-05-09T12:33:21.310Z,17.98
2023-05-09T12:35:49.398Z,18.23
2023-05-09T12:38:22.440Z,18.13
2023-05-09T12:41:06.744Z,17.67
2023-05-09T12:43:36.208Z,15.98
2023-05-09T12:46:04.073Z,16.67
2023-05-09T12:48:37.770Z,18.20
2023-05-09T12:51:07.976Z,16.15
2023-05-09T12:53:43.283Z,14.45
2023-05-09T12:56:25.413Z,15.05
2023-05-09T12:58:55.599Z,17.25
2023-05-09T13:01:31.042Z,17.27
2023-05-09T13:04:05.833Z,16.20
2023-05-09T13:06:51.740Z,15.73
2023-05-09T13:09:18.709Z,16.17
2023-05-09T13:14:14.948Z,17.10
2023-05-09T13:16:43.534Z,19.13
2023-05-09T13:19:11.037Z,16.92
2023-05-09T13:21:37.605Z,16.15
2023-05-09T13:24:04.889Z,15.27
2023-05-09T13:26:32.403Z,15.77
2023-05-09T13:29:04.071Z,14.45
2023-05-09T13:31:31.503Z,20.77
2023-05-09T13:33:58.092Z,14.15
2023-05-09T13:36:24.628Z,15.48
2023-05-09T13:38:52.224Z,18.60
2023-05-09T13:41:27.015Z,15.98
2023-05-09T13:43:53.454Z,16.08
2023-05-09T13:46:20.108Z,17.50
2023-05-09T13:48:47.720Z,17.15
2023-05-09T13:51:14.417Z,17.83
2023-05-09T13:53:41.001Z,14.63
2023-05-09T13:56:09.663Z,13.75
2023-05-09T13:58:36.405Z,16.48
2023-05-09T14:01:12.021Z,13.55
2023-05-09T14:03:38.778Z,16.05
2023-05-09T14:06:05.505Z,14.85
2023-05-09T14:08:33.544Z,15.38
2023-05-09T14:11:00.568Z,16.63
2023-05-09T14:13:27.098Z,13.55
2023-05-09T14:15:55.036Z,15.52
2023-05-09T14:18:21.615Z,14.25
2023-05-09T14:20:48.353Z,12.38
2023-05-09T14:23:14.788Z,11.82
2023-05-09T14:25:41.380Z,10.20
2023-05-09T14:28:09.687Z,11.63
2023-05-09T14:30:38.265Z,10.43
2023-05-09T14:33:04.817Z,9.05
2023-05-09T14:35:34.105Z,8.70
2023-05-09T14:38:01.544Z,10.88
2023-05-09T14:42:59.249Z,11.00
2023-05-09T14:47:57.624Z,9.50
2023-05-09T14:50:24.380Z,13.65
2023-05-09T14:52:52.141Z,9.73
2023-05-09T14:55:19.316Z,9.43
2023-05-09T15:00:21.172Z,7.60
2023-05-09T15:02:49.762Z,6.50
2023-05-09T15:05:16.721Z,7.75
2023-05-09T15:07:50.489Z,6.45
2023-05-09T15:10:17.178Z,8.18
2023-05-09T15:12:44.315Z,6.78
2023-05-09T15:15:14.002Z,7.55
2023-05-09T15:17:40.988Z,8.80
2023-05-09T15:20:07.771Z,7.60
2023-05-09T15:22:41.975Z,7.25
2023-05-09T15:25:11.854Z,7.78
2023-05-09T15:27:40.065Z,8.63
2023-05-09T15:30:08.909Z,7.90
2023-05-09T15:32:42.098Z,7.93
2023-05-09T15:35:09.044Z,7.97
2023-05-09T15:37:36.351Z,7.80
2023-05-09T15:40:03.035Z,8.55
2023-05-09T15:42:29.692Z,6.93
2023-05-09T15:44:56.587Z,7.18
2023-05-09T15:47:23.477Z,8.13
2023-05-09T15:49:51.093Z,6.10
2023-05-09T15:52:18.057Z,6.50
2023-05-09T15:54:46.220Z,5.40
2023-05-09T15:57:13.480Z,5.80
2023-05-09T16:02:07.899Z,3.88
2023-05-09T16:04:34.782Z,2.38
2023-05-09T16:07:02.474Z,3.38
2023-05-09T16:09:29.260Z,2.38
2023-05-09T16:11:56.376Z,2.17
2023-05-09T16:14:23.193Z,2.75
2023-05-09T16:16:51.615Z,3.42
2023-05-09T16:19:19.256Z,4.18
2023-05-09T16:21:46.700Z,3.08
2023-05-09T16:24:13.183Z,3.17
2023-05-09T16:26:43.977Z,3.25
2023-05-09T16:29:16.298Z,4.88
2023-05-09T16:31:44.946Z,3.80
2023-05-09T16:34:11.437Z,3.28
2023-05-09T16:36:38.308Z,3.58
2023-05-09T16:39:05.150Z,4.13
2023-05-09T16:41:31.782Z,3.00
2023-05-09T16:43:58.951Z,3.78
2023-05-09T16:48:52.814Z,4.22
2023-05-09T16:51:19.277Z,5.07
2023-05-09T16:53:45.732Z,5.40
2023-05-09T16:56:12.608Z,5.07
2023-05-09T16:58:39.270Z,5.70
2023-05-09T17:01:05.855Z,6.50
2023-05-09T17:03:32.319Z,7.68
2023-05-09T17:05:58.825Z,6.00
2023-05-09T17:08:25.249Z,4.47
2023-05-09T17:10:51.693Z,5.45
2023-05-09T17:13:18.117Z,7.28
2023-05-09T17:15:52.702Z,8.05
2023-05-09T17:18:33.234Z,7.47
2023-05-09T17:21:03.825Z,6.30
2023-05-09T17:23:30.276Z,5.95
2023-05-09T17:25:56.735Z,6.95
2023-05-09T17:28:26.894Z,6.03
2023-05-09T17:30:53.383Z,5.47
2023-05-09T17:33:20.675Z,5.13
2023-05-09T17:38:26.106Z,6.65
2023-05-09T17:40:52.668Z,5.78
2023-05-09T17:43:19.585Z,5.75
2023-05-09T17:45:46.408Z,5.40
2023-05-09T17:48:13.542Z,5.68
2023-05-09T17:50:39.978Z,8.10
2023-05-09T17:53:08.764Z,6.25
2023-05-09T17:55:35.543Z,6.82
2023-05-09T17:58:02.991Z,7.35
2023-05-09T18:00:29.615Z,6.35
2023-05-09T18:02:58.304Z,6.40
2023-05-09T18:05:26.756Z,7.95
2023-05-09T18:07:53.415Z,7.43
2023-05-09T18:10:20.744Z,6.63
2023-05-09T18:12:48.375Z,8.55
2023-05-09T18:15:15.007Z,6.55
2023-05-09T18:17:41.558Z,7.10
2023-05-09T18:20:08.732Z,7.25
2023-05-09T18:27:32.421Z,8.52
2023-05-09T18:29:59.530Z,7.90
2023-05-09T18:32:26.131Z,7.53
2023-05-09T18:34:53.054Z,9.38
2023-05-09T18:37:19.587Z,6.97
2023-05-09T18:39:46.101Z,8.23
2023-05-09T18:42:16.157Z,7.90
2023-05-09T18:44:44.257Z,7.63
2023-05-09T18:47:11.286Z,6.85
2023-05-09T18:49:52.782Z,7.35
2023-05-09T18:52:21.129Z,7.45
2023-05-09T18:54:48.087Z,8.63
2023-05-09T18:57:14.896Z,7.15
2023-05-09T18:59:41.436Z,9.73
2023-05-09T19:02:09.172Z,9.50
2023-05-09T19:04:36.948Z,7.85
2023-05-09T19:07:04.563Z,8.68
2023-05-09T19:09:31.240Z,7.55
2023-05-09T19:11:59.562Z,8.15
2023-05-09T19:14:26.061Z,10.00
2023-05-09T19:16:54.087Z,10.18
2023-05-09T19:19:20.775Z,8.52
2023-05-09T19:21:50.146Z,9.93
2023-05-09T19:24:16.764Z,8.73
2023-05-09T19:26:43.311Z,9.15
2023-05-09T19:29:09.974Z,8.65
2023-05-09T19:31:37.716Z,8.43
2023-05-09T19:34:04.332Z,8.85
2023-05-09T19:36:31.036Z,8.80
2023-05-09T19:38:58.974Z,11.63
2023-05-09T19:41:26.855Z,8.52
2023-05-09T19:43:53.498Z,9.02
2023-05-09T19:46:20.170Z,8.25
2023-05-09T19:48:46.658Z,10.35
2023-05-09T19:51:15.894Z,8.82
2023-05-09T19:53:44.410Z,8.40
2023-05-09T19:56:11.602Z,11.05
2023-05-09T20:01:07.416Z,10.13
2023-05-09T20:03:36.765Z,7.85
2023-05-09T20:06:03.505Z,8.63
2023-05-09T20:08:31.274Z,10.55
2023-05-09T20:10:59.551Z,9.15
2023-05-09T20:13:27.057Z,8.85
2023-05-09T20:15:53.892Z,9.30
2023-05-09T20:18:20.560Z,11.13
2023-05-09T20:20:47.033Z,11.88
2023-05-09T20:23:13.594Z,9.93
2023-05-09T20:25:40.337Z,12.27
2023-05-09T20:28:06.819Z,9.68
2023-05-09T20:30:33.347Z,10.98
2023-05-09T20:33:01.117Z,10.20
2023-05-09T20:35:27.820Z,9.93
2023-05-09T20:37:54.719Z,11.45
2023-05-09T20:40:21.201Z,10.70
2023-05-09T20:42:47.763Z,11.95
2023-05-09T20:45:14.306Z,11.40
2023-05-09T20:47:41.166Z,12.82
2023-05-09T20:50:08.512Z,14.75
2023-05-09T20:52:34.995Z,12.40
2023-05-09T20:55:01.986Z,11.10
2023-05-09T20:57:28.689Z,12.07
2023-05-09T20:59:55.278Z,13.05
2023-05-09T21:02:24.980Z,12.60
2023-05-09T21:05:03.708Z,13.73
2023-05-09T21:10:19.841Z,12.45
2023-05-09T21:12:47.780Z,12.45
2023-05-09T21:15:15.458Z,12.43
2023-05-09T21:17:46.551Z,17.15
2023-05-09T21:20:13.442Z,12.15
2023-05-09T21:22:41.995Z,11.63
2023-05-09T21:25:09.551Z,12.07
2023-05-09T21:27:36.712Z,13.52
2023-05-09T21:30:03.841Z,13.38
2023-05-09T21:32:30.432Z,15.55
2023-05-09T21:34:56.982Z,11.80
2023-05-09T21:37:23.529Z,13.55
2023-05-09T21:39:50.504Z,14.27
2023-05-09T21:42:17.846Z,24.52
2023-05-09T21:44:45.210Z,14.98
2023-05-09T21:47:11.847Z,11.95
2023-05-09T21:49:38.834Z,15.70
2023-05-09T21:52:05.312Z,13.60
2023-05-09T21:54:31.836Z,13.27
2023-05-09T21:56:58.390Z,13.95
2023-05-09T21:59:25.419Z,15.20
2023-05-09T22:01:51.998Z,12.73
2023-05-09T22:04:18.486Z,11.10
2023-05-09T22:06:45.989Z,12.20
2023-05-09T22:09:12.745Z,13.20
2023-05-09T22:11:39.812Z,14.15
2023-05-09T22:14:07.255Z,9.25
2023-05-09T22:16:38.537Z,13.23
2023-05-09T22:19:05.371Z,12.32
2023-05-09T22:21:34.112Z,14.52
2023-05-09T22:24:00.796Z,16.77
2023-05-09T22:26:29.053Z,14.48
2023-05-09T22:28:56.313Z,16.55
2023-05-09T22:34:00.102Z,18.87
2023-05-09T22:36:27.094Z,19.00
2023-05-09T22:39:01.987Z,18.92
2023-05-09T22:41:28.578Z,18.08
2023-05-09T22:43:55.013Z,17.65
2023-05-09T22:46:21.700Z,17.87
2023-05-09T22:48:54.009Z,18.08
2023-05-09T22:51:25.500Z,21.33
2023-05-09T22:53:54.300Z,19.40
2023-05-09T22:56:20.784Z,19.45
2023-05-09T22:58:49.354Z,20.17
2023-05-09T23:01:17.368Z,17.27
2023-05-09T23:03:43.873Z,19.63
2023-05-09T23:06:14.498Z,19.58
2023-05-09T23:08:47.688Z,20.80
2023-05-09T23:11:14.339Z,19.63
2023-05-09T23:13:41.138Z,21.30
2023-05-09T23:16:07.759Z,21.67
2023-05-09T23:18:34.422Z,18.60
2023-05-09T23:21:01.034Z,11.95
2023-05-09T23:23:27.692Z,11.43
2023-05-09T23:25:54.400Z,10.23
2023-05-09T23:28:25.465Z,9.18
2023-05-09T23:30:53.528Z,9.15
2023-05-09T23:33:20.289Z,8.48
2023-05-09T23:35:47.565Z,10.20
2023-05-09T23:38:14.113Z,10.30
2023-05-09T23:40:44.230Z,9.27
2023-05-09T23:43:10.672Z,8.48
2023-05-09T23:45:38.081Z,10.03
2023-05-09T23:50:31.315Z,7.32
2023-05-09T23:52:57.765Z,7.63
2023-05-09T23:55:24.347Z,8.73
2023-05-09T23:57:50.885Z,8.73
